Time,TemperatureF,DewpointF,PressureIn,WindDirection,WindDirectionDegrees,WindSpeedMPH,WindSpeedGustMPH,Humidity,HourlyPrecipIn,Conditions,Clouds,dailyrainin,SoftwareType,DateUTC
2013-06-05 01:32:00,46.0,-99.9,29.93,NW,315,5.0,19.0,0,-99.99,,,0.00,,2013-06-05 05:32:00,
2013-06-05 01:42:00,46.0,-99.9,29.93,NW,315,5.0,19.0,0,-99.99,,,0.00,,2013-06-05 05:42:00,
2013-06-05 01:53:00,46.0,-99.9,29.93,NW,315,5.0,19.0,0,-99.99,,,0.00,,2013-06-05 05:53:00,
2013-06-05 02:02:00,46.0,-99.9,29.93,NW,315,5.0,19.0,0,-99.99,,,0.00,,2013-06-05 06:02:00,
2013-06-05 02:42:00,44.0,-99.9,29.94,NNW,337,8.0,16.0,0,-99.99,,,0.00,,2013-06-05 06:42:00,
2013-06-05 02:52:00,44.0,-99.9,29.94,NNW,337,8.0,16.0,0,-99.99,,,0.00,,2013-06-05 06:52:00,
2013-06-05 03:02:00,44.0,-99.9,29.94,NNW,337,8.0,16.0,0,-99.99,,,0.00,,2013-06-05 07:02:00,
2013-06-05 03:32:00,43.0,-99.9,29.95,NW,315,8.0,13.0,0,-99.99,,,0.00,,2013-06-05 07:32:00,
2013-06-05 03:42:00,43.0,-99.9,29.95,NW,315,8.0,13.0,0,-99.99,,,0.00,,2013-06-05 07:42:00,
2013-06-05 03:52:00,43.0,-99.9,29.95,NW,315,8.0,13.0,0,-99.99,,,0.00,,2013-06-05 07:52:00,
2013-06-05 04:02:00,43.0,-99.9,29.95,NW,315,8.0,13.0,0,-99.99,,,0.00,,2013-06-05 08:02:00,
2013-06-05 05:03:00,40.0,-99.9,29.99,NW,315,5.0,15.0,0,-99.99,,,0.00,,2013-06-05 09:03:00,
2013-06-05 05:43:00,40.0,-99.9,29.99,NW,315,5.0,15.0,0,-99.99,,,0.00,,2013-06-05 09:43:00,
2013-06-05 05:53:00,40.0,-99.9,29.99,NW,315,5.0,15.0,0,-99.99,,,0.00,,2013-06-05 09:53:00,
2013-06-05 06:33:00,42.0,-99.9,30.02,NW,315,3.0,12.0,0,-99.99,,,-99.99,,2013-06-05 10:33:00,
2013-06-05 06:43:00,42.0,-99.9,30.02,NW,315,3.0,12.0,0,-99.99,,,-99.99,,2013-06-05 10:43:00,
2013-06-05 06:53:00,42.0,-99.9,30.02,NW,315,3.0,12.0,0,-99.99,,,-99.99,,2013-06-05 10:53:00,
2013-06-05 07:02:00,42.0,-99.9,30.02,NW,315,3.0,12.0,0,-99.99,,,-99.99,,2013-06-05 11:02:00,
2013-06-05 07:42:00,45.0,-99.9,30.03,NNW,337,7.0,12.0,0,-99.99,,,0.00,,2013-06-05 11:42:00,
2013-06-05 07:52:00,45.0,-99.9,30.03,NNW,337,7.0,12.0,0,-99.99,,,0.00,,2013-06-05 11:52:00,
2013-06-05 08:02:00,45.0,-99.9,30.03,NNW,337,7.0,12.0,0,-99.99,,,0.00,,2013-06-05 12:02:00,
2013-06-05 08:32:00,48.0,-99.9,30.04,NW,315,5.0,20.0,0,-99.99,,,0.00,,2013-06-05 12:32:00,
2013-06-05 08:44:00,48.0,-99.9,30.04,NW,315,5.0,20.0,0,-99.99,,,0.00,,2013-06-05 12:44:00,
2013-06-05 08:52:00,48.0,-99.9,30.04,NW,315,5.0,20.0,0,-99.99,,,0.00,,2013-06-05 12:52:00,
2013-06-05 09:02:00,48.0,-99.9,30.04,NW,315,5.0,20.0,0,-99.99,,,0.00,,2013-06-05 13:02:00,
2013-06-05 09:42:00,49.0,-99.9,30.04,North,360,8.0,17.0,0,-99.99,,,0.00,,2013-06-05 13:42:00,
2013-06-05 09:53:00,49.0,-99.9,30.04,North,360,8.0,17.0,0,-99.99,,,0.00,,2013-06-05 13:53:00,
2013-06-05 10:02:00,49.0,-99.9,30.04,North,360,8.0,17.0,0,-99.99,,,0.00,,2013-06-05 14:02:00,
2013-06-05 10:03:00,52.0,-99.9,30.03,NNW,337,5.0,24.0,0,-99.99,,,0.00,,2013-06-05 14:03:00,
2013-06-05 10:42:00,52.0,-99.9,30.03,NNW,337,5.0,24.0,0,-99.99,,,0.00,,2013-06-05 14:42:00,
2013-06-05 10:52:00,52.0,-99.9,30.03,NNW,337,5.0,24.0,0,-99.99,,,0.00,,2013-06-05 14:52:00,
2013-06-05 11:03:00,54.0,-99.9,30.03,NW,315,10.0,20.0,0,-99.99,,,0.00,,2013-06-05 15:03:00,
2013-06-05 11:43:00,54.0,-99.9,30.03,NW,315,10.0,20.0,0,-99.99,,,0.00,,2013-06-05 15:43:00,
2013-06-05 11:53:00,54.0,-99.9,30.03,NW,315,10.0,20.0,0,-99.99,,,0.00,,2013-06-05 15:53:00,
2013-06-05 13:43:00,59.0,-99.9,29.99,NNW,337,10.0,19.0,0,-99.99,,,0.00,,2013-06-05 17:43:00,
2013-06-05 13:52:00,59.0,-99.9,29.99,NNW,337,10.0,19.0,0,-99.99,,,0.00,,2013-06-05 17:52:00,
2013-06-05 14:02:00,59.0,-99.9,29.99,NNW,337,10.0,19.0,0,-99.99,,,0.00,,2013-06-05 18:02:00,
2013-06-05 14:03:00,60.0,-99.9,29.98,NW,315,7.0,19.0,0,-99.99,,,0.00,,2013-06-05 18:03:00,
2013-06-05 14:42:00,60.0,-99.9,29.98,NW,315,7.0,19.0,0,-99.99,,,0.00,,2013-06-05 18:42:00,
2013-06-05 14:52:00,60.0,-99.9,29.98,NW,315,7.0,19.0,0,-99.99,,,0.00,,2013-06-05 18:52:00,
2013-06-05 15:03:00,62.0,-99.9,29.96,NNW,337,5.0,21.0,0,-99.99,,,0.00,,2013-06-05 19:03:00,
2013-06-05 15:42:00,62.0,-99.9,29.96,NNW,337,5.0,21.0,0,-99.99,,,0.00,,2013-06-05 19:42:00,
2013-06-05 15:53:00,62.0,-99.9,29.96,NNW,337,5.0,21.0,0,-99.99,,,0.00,,2013-06-05 19:53:00,
2013-06-05 16:32:00,62.0,-99.9,29.95,WNW,292,6.0,25.0,0,-99.99,,,0.00,,2013-06-05 20:32:00,
2013-06-05 16:42:00,62.0,-99.9,29.95,WNW,292,6.0,25.0,0,-99.99,,,0.00,,2013-06-05 20:42:00,
2013-06-05 16:52:00,62.0,-99.9,29.95,WNW,292,6.0,25.0,0,-99.99,,,0.00,,2013-06-05 20:52:00,
2013-06-05 17:02:00,62.0,-99.9,29.95,WNW,292,6.0,25.0,0,-99.99,,,0.00,,2013-06-05 21:02:00,
2013-06-05 17:03:00,63.0,-99.9,29.96,North,360,11.0,23.0,0,-99.99,,,0.00,,2013-06-05 21:03:00,
2013-06-05 17:33:00,63.0,-99.9,29.96,North,360,11.0,23.0,0,-99.99,,,0.00,,2013-06-05 21:33:00,
2013-06-05 17:43:00,63.0,-99.9,29.96,North,360,11.0,23.0,0,-99.99,,,0.00,,2013-06-05 21:43:00,
2013-06-05 17:53:00,63.0,-99.9,29.96,North,360,11.0,23.0,0,-99.99,,,0.00,,2013-06-05 21:53:00,
2013-06-05 18:33:00,62.0,-99.9,29.95,NNW,337,12.0,21.0,0,-99.99,,,0.00,,2013-06-05 22:33:00,
2013-06-05 18:43:00,62.0,-99.9,29.95,NNW,337,12.0,21.0,0,-99.99,,,0.00,,2013-06-05 22:43:00,
2013-06-05 18:53:00,62.0,-99.9,29.95,NNW,337,12.0,21.0,0,-99.99,,,0.00,,2013-06-05 22:53:00,
2013-06-05 19:02:00,62.0,-99.9,29.95,NNW,337,12.0,21.0,0,-99.99,,,0.00,,2013-06-05 23:02:00,
2013-06-05 19:32:00,62.0,-99.9,29.96,NNW,337,13.0,20.0,0,-99.99,,,0.00,,2013-06-05 23:32:00,
2013-06-05 19:42:00,62.0,-99.9,29.96,NNW,337,13.0,20.0,0,-99.99,,,0.00,,2013-06-05 23:42:00,
2013-06-05 19:53:00,62.0,-99.9,29.96,NNW,337,13.0,20.0,0,-99.99,,,0.00,,2013-06-05 23:53:00,
2013-06-05 20:02:00,62.0,-99.9,29.96,NNW,337,13.0,20.0,0,-99.99,,,0.00,,2013-06-06 00:02:00,
2013-06-05 20:43:00,58.0,-99.9,29.99,NNE,22,4.0,17.0,0,-99.99,,,0.00,,2013-06-06 00:43:00,
2013-06-05 20:52:00,58.0,-99.9,29.99,NNE,22,4.0,17.0,0,-99.99,,,0.00,,2013-06-06 00:52:00,
2013-06-05 21:02:00,58.0,-99.9,29.99,NNE,22,4.0,17.0,0,-99.99,,,0.00,,2013-06-06 01:02:00,
2013-06-05 21:32:00,54.0,-99.9,30.01,NNE,22,5.0,13.0,0,-99.99,,,0.00,,2013-06-06 01:32:00,
2013-06-05 21:42:00,54.0,-99.9,30.01,NNE,22,5.0,13.0,0,-99.99,,,0.00,,2013-06-06 01:42:00,
2013-06-05 21:53:00,54.0,-99.9,30.01,NNE,22,5.0,13.0,0,-99.99,,,0.00,,2013-06-06 01:53:00,
2013-06-05 22:02:00,54.0,-99.9,30.01,NNE,22,5.0,13.0,0,-99.99,,,0.00,,2013-06-06 02:02:00,
2013-06-05 23:02:00,49.0,-99.9,30.03,WNW,292,4.0,12.0,0,-99.99,,,0.00,,2013-06-06 03:02:00,
2013-06-05 23:03:00,47.0,-99.9,30.04,WSW,247,4.0,8.0,0,-99.99,,,0.00,,2013-06-06 03:03:00,
2013-06-05 23:33:00,47.0,-99.9,30.04,WSW,247,4.0,8.0,0,-99.99,,,0.00,,2013-06-06 03:33:00,
2013-06-05 23:43:00,47.0,-99.9,30.04,WSW,247,4.0,8.0,0,-99.99,,,0.00,,2013-06-06 03:43:00,
2013-06-05 23:53:00,47.0,-99.9,30.04,WSW,247,4.0,8.0,0,-99.99,,,0.00,,2013-06-06 03:53:00,